createdAt,value
2023-01-29T00:02:25.175Z,101355.25
2023-01-29T00:04:57.145Z,101351.78
2023-01-29T00:07:28.357Z,101358.75
2023-01-29T00:09:56.680Z,101350.06
2023-01-29T00:12:24.916Z,101356.13
2023-01-29T00:14:53.203Z,101349.13
2023-01-29T00:17:21.521Z,101350.84
2023-01-29T00:19:49.674Z,101342.97
2023-01-29T00:22:17.948Z,101334.28
2023-01-29T00:24:47.425Z,101327.28
2023-01-29T00:27:15.612Z,101343.69
2023-01-29T00:29:43.799Z,101338.34
2023-01-29T00:32:12.145Z,101333.13
2023-01-29T00:34:40.425Z,101349.56
2023-01-29T00:37:09.126Z,101341.75
2023-01-29T00:39:47.801Z,101346.09
2023-01-29T00:42:35.191Z,101356.50
2023-01-29T00:45:03.615Z,101346.09
2023-01-29T00:47:33.618Z,101343.50
2023-01-29T00:50:02.828Z,101347.88
2023-01-29T00:52:31.397Z,101350.41
2023-01-29T00:55:01.132Z,101346.06
2023-01-29T00:57:33.078Z,101344.25
2023-01-29T01:00:01.866Z,101346.78
2023-01-29T01:02:47.504Z,101344.16
2023-01-29T01:05:19.045Z,101355.38
2023-01-29T01:07:48.610Z,101356.25
2023-01-29T01:10:24.343Z,101356.31
2023-01-29T01:12:58.005Z,101353.72
2023-01-29T01:15:28.091Z,101348.53
2023-01-29T01:17:58.225Z,101344.22
2023-01-29T01:20:27.685Z,101337.31
2023-01-29T01:22:56.404Z,101335.59
2023-01-29T01:25:25.683Z,101339.91
2023-01-29T01:27:56.171Z,101339.91
2023-01-29T01:30:25.533Z,101331.22
2023-01-29T01:32:53.726Z,101328.56
2023-01-29T01:35:22.010Z,101317.22
2023-01-29T01:37:50.539Z,101317.19
2023-01-29T01:40:20.458Z,101306.78
2023-01-29T01:42:50.393Z,101309.38
2023-01-29T01:45:24.427Z,101312.00
2023-01-29T01:47:57.338Z,101303.34
2023-01-29T01:50:30.354Z,101301.66
2023-01-29T01:53:03.773Z,101299.03
2023-01-29T01:55:34.397Z,101290.38
2023-01-29T01:58:08.464Z,101290.38
2023-01-29T02:00:40.997Z,101282.56
2023-01-29T02:03:29.326Z,101286.94
2023-01-29T02:06:18.563Z,101281.72
2023-01-29T02:09:10.932Z,101286.91
2023-01-29T02:11:39.663Z,101293.78
2023-01-29T02:14:08.379Z,101278.94
2023-01-29T02:16:38.231Z,101285.78
2023-01-29T02:19:15.404Z,101289.09
2023-01-29T02:22:03.671Z,101283.75
2023-01-29T02:25:10.041Z,101290.56
2023-01-29T02:28:03.599Z,101281.81
2023-01-29T02:30:37.634Z,101274.88
2023-01-29T02:33:14.285Z,101269.72
2023-01-29T02:35:46.348Z,101270.59
2023-01-29T02:38:23.910Z,101265.44
2023-01-29T02:40:56.775Z,101262.00
2023-01-29T02:43:35.478Z,101259.50
2023-01-29T02:46:12.314Z,101251.72
2023-01-29T02:48:46.043Z,101241.28
2023-01-29T02:51:20.660Z,101238.66
2023-01-29T02:53:56.918Z,101237.66
2023-01-29T02:56:31.707Z,101235.78
2023-01-29T02:59:07.424Z,101233.03
2023-01-29T03:01:42.109Z,101229.47
2023-01-29T03:04:15.909Z,101228.50
2023-01-29T03:06:46.675Z,101226.69
2023-01-29T03:09:23.447Z,101225.81
2023-01-29T03:11:56.336Z,101216.28
2023-01-29T03:14:52.618Z,101219.84
2023-01-29T03:17:24.345Z,101224.28
2023-01-29T03:19:52.784Z,101220.06
2023-01-29T03:22:25.310Z,101221.88
2023-01-29T03:25:15.508Z,101211.56
2023-01-29T03:28:08.751Z,101203.84
2023-01-29T03:31:04.581Z,101196.19
2023-01-29T03:33:47.093Z,101199.69
2023-01-29T03:36:19.736Z,101196.25
2023-01-29T03:38:48.091Z,101187.59
2023-01-29T03:41:26.414Z,101187.59
2023-01-29T03:44:02.534Z,101185.00
2023-01-29T03:46:37.784Z,101183.28
2023-01-29T03:49:13.553Z,101179.03
2023-01-29T03:51:52.404Z,101183.34
2023-01-29T03:54:27.421Z,101186.81
2023-01-29T03:57:02.111Z,101184.22
2023-01-29T03:59:40.752Z,101184.22
2023-01-29T04:02:33.861Z,101184.22
2023-01-29T04:05:13.444Z,101178.13
2023-01-29T04:07:55.429Z,101186.88
2023-01-29T04:10:28.228Z,101186.03
2023-01-29T04:13:01.311Z,101180.00
2023-01-29T04:15:35.324Z,101185.22
2023-01-29T04:18:05.169Z,101173.06
2023-01-29T04:20:44.778Z,101182.56
2023-01-29T04:23:22.594Z,101166.84
2023-01-29T04:26:07.023Z,101182.38
2023-01-29T04:28:52.224Z,101174.53
2023-01-29T04:31:26.210Z,101163.25
2023-01-29T04:34:09.460Z,101161.44
2023-01-29T04:36:45.837Z,101153.50
2023-01-29T04:39:21.331Z,101152.53
2023-01-29T04:41:55.475Z,101153.22
2023-01-29T04:44:34.228Z,101148.72
2023-01-29T04:47:11.857Z,101153.75
2023-01-29T04:49:48.655Z,101156.16
2023-01-29T04:52:23.975Z,101155.09
2023-01-29T04:55:02.586Z,101155.63
2023-01-29T04:57:37.662Z,101138.03
2023-01-29T05:00:12.788Z,101135.22
2023-01-29T05:02:43.485Z,101134.22
2023-01-29T05:05:16.727Z,101129.03
2023-01-29T05:07:45.752Z,101121.25
2023-01-29T05:10:16.063Z,101123.88
2023-01-29T05:12:49.751Z,101117.84
2023-01-29T05:15:23.783Z,101107.66
2023-01-29T05:17:53.875Z,101110.34
2023-01-29T05:20:23.546Z,101109.47
2023-01-29T05:22:52.054Z,101102.59
2023-01-29T05:25:24.304Z,101094.19
2023-01-29T05:28:11.614Z,101098.09
2023-01-29T05:30:41.093Z,101086.31
2023-01-29T05:33:14.549Z,101077.06
2023-01-29T05:35:44.645Z,101067.69
2023-01-29T05:38:12.926Z,101070.31
2023-01-29T05:40:41.770Z,101061.72
2023-01-29T05:43:17.173Z,101057.56
2023-01-29T05:45:52.615Z,101058.56
2023-01-29T05:48:20.915Z,101063.06
2023-01-29T05:50:50.427Z,101067.50
2023-01-29T05:53:18.988Z,101064.09
2023-01-29T05:55:47.558Z,101058.97
2023-01-29T05:58:15.938Z,101055.59
2023-01-29T06:00:44.180Z,101044.31
2023-01-29T06:03:12.484Z,101046.94
2023-01-29T06:05:41.079Z,101042.63
2023-01-29T06:08:10.575Z,101039.16
2023-01-29T06:10:38.673Z,101040.91
2023-01-29T06:13:07.083Z,101043.50
2023-01-29T06:15:35.264Z,101028.75
2023-01-29T06:18:03.555Z,101029.66
2023-01-29T06:20:31.698Z,101037.47
2023-01-29T06:23:00.030Z,101034.00
2023-01-29T06:25:29.506Z,101039.16
2023-01-29T06:27:59.436Z,101027.88
2023-01-29T06:30:28.473Z,101023.50
2023-01-29T06:32:58.906Z,101024.34
2023-01-29T06:35:27.412Z,101020.00
2023-01-29T06:37:55.574Z,101025.19
2023-01-29T06:40:23.887Z,101026.94
2023-01-29T06:42:53.324Z,101033.00
2023-01-29T06:45:21.587Z,101031.25
2023-01-29T06:47:49.785Z,101026.91
2023-01-29T06:50:18.669Z,101025.13
2023-01-29T06:52:46.947Z,101028.59
2023-01-29T06:55:15.335Z,101022.47
2023-01-29T06:57:43.504Z,101018.97
2023-01-29T07:00:14.451Z,101010.28
2023-01-29T07:02:42.912Z,101020.72
2023-01-29T07:05:11.077Z,101021.59
2023-01-29T07:07:39.282Z,101020.75
2023-01-29T07:10:08.465Z,101026.84
2023-01-29T07:12:36.666Z,101026.88
2023-01-29T07:15:05.205Z,101030.38
2023-01-29T07:17:34.675Z,101013.00
2023-01-29T07:20:02.783Z,101022.56
2023-01-29T07:22:30.994Z,101016.50
2023-01-29T07:24:59.336Z,101011.31
2023-01-29T07:27:28.682Z,101006.19
2023-01-29T07:29:56.874Z,101013.19
2023-01-29T07:32:25.124Z,101008.88
2023-01-29T07:34:54.586Z,101015.84
2023-01-29T07:37:22.776Z,101009.78
2023-01-29T07:39:51.356Z,101001.97
2023-01-29T07:42:19.583Z,101002.00
2023-01-29T07:44:47.696Z,101007.25
2023-01-29T07:47:17.269Z,101004.63
2023-01-29T07:49:45.494Z,101006.38
2023-01-29T07:52:15.047Z,101011.59
2023-01-29T07:54:43.315Z,101018.56
2023-01-29T07:57:11.550Z,101015.09
2023-01-29T07:59:39.716Z,101012.50
2023-01-29T08:02:08.082Z,101018.63
2023-01-29T08:04:36.438Z,101016.00
2023-01-29T08:07:04.999Z,101009.06
2023-01-29T08:09:34.505Z,101018.63
2023-01-29T08:12:02.697Z,101014.25
2023-01-29T08:14:30.895Z,100998.59
2023-01-29T08:16:59.086Z,100999.47
2023-01-29T08:19:27.214Z,100993.41
2023-01-29T08:21:55.415Z,100996.88
2023-01-29T08:24:28.253Z,100994.25
2023-01-29T08:27:05.774Z,100997.75
2023-01-29T08:29:33.983Z,100989.03
2023-01-29T08:32:02.342Z,100989.03
2023-01-29T08:34:30.509Z,100995.97
2023-01-29T08:36:58.696Z,100998.63
2023-01-29T08:39:26.876Z,101003.84
2023-01-29T08:41:55.141Z,101004.72
2023-01-29T08:44:24.636Z,101002.09
2023-01-29T08:46:52.885Z,101008.19
2023-01-29T08:49:21.052Z,101009.03
2023-01-29T08:51:49.329Z,101016.88
2023-01-29T08:54:17.500Z,101009.03
2023-01-29T08:56:45.962Z,101017.72
2023-01-29T08:59:14.361Z,101014.25
2023-01-29T09:01:43.995Z,101009.91
2023-01-29T09:04:12.153Z,101006.41
2023-01-29T09:06:40.344Z,101007.28
2023-01-29T09:09:08.704Z,101004.66
2023-01-29T09:11:38.224Z,101005.53
2023-01-29T09:14:06.383Z,100998.56
2023-01-29T09:16:34.650Z,100999.41
2023-01-29T09:19:04.195Z,100995.03
2023-01-29T09:21:32.452Z,100998.53
2023-01-29T09:24:00.605Z,100993.25
2023-01-29T09:26:28.946Z,100997.63
2023-01-29T09:28:57.414Z,101002.81
2023-01-29T09:31:25.843Z,101001.97
2023-01-29T09:33:54.155Z,101012.41
2023-01-29T09:36:23.685Z,101004.59
2023-01-29T09:38:51.896Z,101001.97
2023-01-29T09:41:35.061Z,101006.31
2023-01-29T09:44:06.381Z,100989.75
2023-01-29T09:46:39.738Z,100993.25
2023-01-29T09:49:16.035Z,100986.28
2023-01-29T09:51:50.206Z,100981.91
2023-01-29T09:54:24.321Z,100983.63
2023-01-29T09:56:56.392Z,100980.16
2023-01-29T09:59:27.888Z,100981.91
2023-01-29T10:02:05.803Z,100988.84
2023-01-29T10:05:04.885Z,100984.47
2023-01-29T10:07:56.571Z,100978.34
2023-01-29T10:10:36.931Z,100980.94
2023-01-29T10:13:16.798Z,100978.25
2023-01-29T10:15:59.536Z,100978.22
2023-01-29T10:18:42.457Z,100964.22
2023-01-29T10:21:28.409Z,100959.78
2023-01-29T10:24:06.982Z,100964.13
2023-01-29T10:26:37.948Z,100965.81
2023-01-29T10:29:09.125Z,100961.38
2023-01-29T10:31:40.928Z,100963.97
2023-01-29T10:34:16.026Z,100952.59
2023-01-29T10:36:46.258Z,100953.41
2023-01-29T10:39:20.561Z,100948.13
2023-01-29T10:41:59.318Z,100939.38
2023-01-29T10:44:38.129Z,100939.31
2023-01-29T10:47:22.515Z,100936.72
2023-01-29T10:50:11.760Z,100938.41
2023-01-29T10:52:50.705Z,100938.38
2023-01-29T10:55:35.789Z,100932.22
2023-01-29T10:58:15.293Z,100926.09
2023-01-29T11:00:44.009Z,100934.81
2023-01-29T11:06:13.984Z,100928.63
2023-01-29T11:08:47.804Z,100920.72
2023-01-29T11:11:22.053Z,100919.81
2023-01-29T11:13:57.903Z,100915.41
2023-01-29T11:16:28.234Z,100907.56
2023-01-29T11:18:58.658Z,100910.16
2023-01-29T11:21:28.701Z,100890.03
2023-01-29T11:24:08.495Z,100896.09
2023-01-29T11:26:41.601Z,100891.72
2023-01-29T11:29:33.144Z,100891.66
2023-01-29T11:32:05.052Z,100877.66
2023-01-29T11:34:33.397Z,100880.22
2023-01-29T11:37:03.750Z,100879.31
2023-01-29T11:39:33.325Z,100880.16
2023-01-29T11:42:04.646Z,100868.78
2023-01-29T11:44:36.608Z,100863.53
2023-01-29T11:47:26.775Z,100854.75
2023-01-29T11:49:57.038Z,100840.75
2023-01-29T11:52:27.264Z,100847.66
2023-01-29T11:54:59.773Z,100839.81
2023-01-29T11:57:34.242Z,100829.22
2023-01-29T12:00:06.764Z,100829.97
2023-01-29T12:02:39.902Z,100810.47
2023-01-29T12:05:17.085Z,100813.72
2023-01-29T12:07:47.427Z,100799.53
2023-01-29T12:10:32.759Z,100796.75
2023-01-29T12:13:22.769Z,100785.41
2023-01-29T12:15:53.827Z,100792.44
2023-01-29T12:18:30.946Z,100780.03
2023-01-29T12:21:02.719Z,100772.03
2023-01-29T12:23:42.300Z,100778.16
2023-01-29T12:26:16.044Z,100764.00
2023-01-29T12:28:51.077Z,100757.66
2023-01-29T12:31:30.165Z,100756.53
2023-01-29T12:34:06.753Z,100738.91
2023-01-29T12:36:43.067Z,100739.00
2023-01-29T12:39:14.307Z,100733.09
2023-01-29T12:41:46.516Z,100736.06
2023-01-29T12:44:20.844Z,100732.84
2023-01-29T12:46:54.715Z,100734.03
2023-01-29T12:49:27.235Z,100731.59
2023-01-29T12:52:02.065Z,100728.22
2023-01-29T12:54:37.983Z,100722.19
2023-01-29T12:57:12.221Z,100717.88
2023-01-29T12:59:46.714Z,100718.81
2023-01-29T13:02:25.021Z,100714.38
2023-01-29T13:05:00.491Z,100709.91
2023-01-29T13:07:32.974Z,100694.91
2023-01-29T13:10:08.584Z,100688.63
2023-01-29T13:12:38.464Z,100681.38
2023-01-29T13:15:19.235Z,100680.34
2023-01-29T13:17:53.720Z,100676.75
2023-01-29T13:20:29.961Z,100671.69
2023-01-29T13:23:05.210Z,100673.63
2023-01-29T13:25:33.526Z,100673.78
2023-01-29T13:28:02.055Z,100666.84
2023-01-29T13:30:33.962Z,100672.13
2023-01-29T13:33:12.111Z,100651.22
2023-01-29T13:35:43.709Z,100651.16
2023-01-29T13:38:28.052Z,100638.81
2023-01-29T13:41:01.938Z,100638.69
2023-01-29T13:43:35.403Z,100637.66
2023-01-29T13:46:12.245Z,100633.09
2023-01-29T13:48:44.079Z,100618.94
2023-01-29T13:51:19.608Z,100617.28
2023-01-29T13:53:56.496Z,100612.31
2023-01-29T13:56:42.908Z,100605.50
2023-01-29T13:59:24.019Z,100610.88
2023-01-29T14:02:29.722Z,100617.06
2023-01-29T14:05:34.074Z,100616.94
2023-01-29T14:08:04.763Z,100614.19
2023-01-29T14:10:34.935Z,100617.59
2023-01-29T14:13:37.292Z,100609.53
2023-01-29T14:16:28.800Z,100623.25
2023-01-29T14:19:00.149Z,100611.72
2023-01-29T14:21:31.927Z,100606.28
2023-01-29T14:24:11.526Z,100608.63
2023-01-29T14:26:46.128Z,100605.03
2023-01-29T14:29:29.091Z,100597.13
2023-01-29T14:32:15.216Z,100605.16
2023-01-29T14:34:46.047Z,100600.03
2023-01-29T14:37:23.277Z,100596.72
2023-01-29T14:39:56.108Z,100597.75
2023-01-29T14:42:27.744Z,100607.47
2023-01-29T14:45:01.094Z,100597.97
2023-01-29T14:47:55.191Z,100592.91
2023-01-29T14:50:43.826Z,100580.03
2023-01-29T14:53:18.069Z,100586.31
2023-01-29T14:55:54.146Z,100583.81
2023-01-29T14:58:30.085Z,100577.75
2023-01-29T15:01:00.741Z,100574.31
2023-01-29T15:03:38.271Z,100577.81
2023-01-29T15:06:09.098Z,100572.53
2023-01-29T15:08:44.791Z,100576.03
2023-01-29T15:11:39.674Z,100564.75
2023-01-29T15:14:18.954Z,100560.44
2023-01-29T15:16:56.811Z,100549.13
2023-01-29T15:19:29.675Z,100557.03
2023-01-29T15:22:05.118Z,100545.69
2023-01-29T15:24:33.432Z,100542.25
2023-01-29T15:27:03.605Z,100539.66
2023-01-29T15:29:32.123Z,100532.81
2023-01-29T15:32:00.468Z,100529.41
2023-01-29T15:34:28.846Z,100521.59
2023-01-29T15:36:57.062Z,100524.22
2023-01-29T15:39:27.830Z,100524.22
2023-01-29T15:42:21.762Z,100526.88
2023-01-29T15:44:50.158Z,100529.63
2023-01-29T15:47:18.668Z,100548.00
2023-01-29T15:49:49.114Z,100555.03
2023-01-29T15:52:21.493Z,100546.38
2023-01-29T15:54:50.191Z,100554.34
2023-01-29T15:57:24.808Z,100560.59
2023-01-29T15:59:55.803Z,100553.66
2023-01-29T16:02:33.991Z,100551.13
2023-01-29T16:05:02.691Z,100563.44
2023-01-29T16:07:31.594Z,100550.38
2023-01-29T16:10:00.990Z,100549.56
2023-01-29T16:12:30.659Z,100552.28
2023-01-29T16:14:59.078Z,100551.50
2023-01-29T16:17:35.235Z,100557.78
2023-01-29T16:20:05.570Z,100552.72
2023-01-29T16:22:36.555Z,100552.00
2023-01-29T16:25:06.596Z,100533.84
2023-01-29T16:27:36.507Z,100536.53
2023-01-29T16:30:07.596Z,100525.34
2023-01-29T16:32:36.614Z,100521.09
2023-01-29T16:35:05.196Z,100521.13
2023-01-29T16:37:36.442Z,100511.63
2023-01-29T16:40:14.962Z,100490.75
2023-01-29T16:42:44.515Z,100479.56
2023-01-29T16:45:28.244Z,100485.72
2023-01-29T16:48:02.803Z,100488.38
2023-01-29T16:50:46.210Z,100495.47
2023-01-29T16:53:19.814Z,100495.56
2023-01-29T16:55:50.281Z,100512.25
2023-01-29T16:58:22.765Z,100522.81
2023-01-29T17:00:56.296Z,100525.53
2023-01-29T17:03:27.541Z,100532.59
2023-01-29T17:05:56.290Z,100527.47
2023-01-29T17:08:28.354Z,100525.84
2023-01-29T17:10:56.861Z,100525.91
2023-01-29T17:13:32.455Z,100527.69
2023-01-29T17:16:03.425Z,100525.13
2023-01-29T17:18:32.027Z,100509.47
2023-01-29T17:21:00.719Z,100488.59
2023-01-29T17:23:29.035Z,100485.09
2023-01-29T17:25:57.387Z,100483.31
2023-01-29T17:28:27.311Z,100480.72
2023-01-29T17:31:05.851Z,100477.28
2023-01-29T17:33:35.734Z,100461.56
2023-01-29T17:36:04.044Z,100485.91
2023-01-29T17:38:32.513Z,100505.00
2023-01-29T17:41:05.283Z,100496.28
2023-01-29T17:43:35.465Z,100486.72
2023-01-29T17:46:03.716Z,100488.50
2023-01-29T17:48:32.245Z,100513.78
2023-01-29T17:51:03.739Z,100513.88
2023-01-29T17:53:45.180Z,100527.81
2023-01-29T17:56:17.475Z,100534.78
2023-01-29T17:58:47.056Z,100569.56
2023-01-29T18:01:15.505Z,100593.13
2023-01-29T18:03:43.876Z,100590.53
2023-01-29T18:06:17.433Z,100566.19
2023-01-29T18:08:45.731Z,100565.31
2023-01-29T18:11:14.151Z,100565.28
2023-01-29T18:13:42.739Z,100567.81
2023-01-29T18:16:12.286Z,100571.25
2023-01-29T18:18:41.138Z,100592.94
2023-01-29T18:21:09.408Z,100589.41
2023-01-29T18:23:37.580Z,100583.28
2023-01-29T18:26:07.607Z,100582.41
2023-01-29T18:28:35.881Z,100573.63
2023-01-29T18:31:04.767Z,100576.16
2023-01-29T18:33:34.986Z,100574.41
2023-01-29T18:36:05.067Z,100583.13
2023-01-29T18:38:34.295Z,100573.56
2023-01-29T18:41:06.215Z,100569.25
2023-01-29T18:43:34.475Z,100568.38
2023-01-29T18:46:02.794Z,100571.06
2023-01-29T18:48:31.588Z,100576.22
2023-01-29T18:51:01.177Z,100573.53
2023-01-29T18:53:29.391Z,100567.31
2023-01-29T18:55:59.199Z,100563.88
2023-01-29T18:58:36.413Z,100575.22
2023-01-29T19:01:09.662Z,100565.69
2023-01-29T19:03:38.311Z,100575.31
2023-01-29T19:06:10.378Z,100569.28
2023-01-29T19:08:39.042Z,100584.09
2023-01-29T19:11:09.044Z,100566.69
2023-01-29T19:13:38.507Z,100546.72
2023-01-29T19:16:09.204Z,100524.16
2023-01-29T19:18:37.613Z,100527.69
2023-01-29T19:21:11.634Z,100517.28
2023-01-29T19:23:40.254Z,100519.97
2023-01-29T19:26:08.633Z,100526.88
2023-01-29T19:28:36.951Z,100521.72
2023-01-29T19:31:05.480Z,100511.31
2023-01-29T19:33:34.079Z,100493.97
2023-01-29T19:36:02.819Z,100500.09
2023-01-29T19:38:37.946Z,100481.84
2023-01-29T19:41:06.721Z,100481.00
2023-01-29T19:43:35.031Z,100492.25
2023-01-29T19:46:03.791Z,100489.56
2023-01-29T19:48:32.165Z,100488.63
2023-01-29T19:51:02.307Z,100486.84
2023-01-29T19:53:32.463Z,100486.75
2023-01-29T19:56:02.260Z,100494.50
2023-01-29T19:58:31.259Z,100497.88
2023-01-29T20:01:01.681Z,100496.06
2023-01-29T20:03:30.974Z,100491.63
2023-01-29T20:06:03.930Z,100515.91
2023-01-29T20:08:34.598Z,100506.28
2023-01-29T20:11:03.104Z,100498.41
2023-01-29T20:13:31.380Z,100481.88
2023-01-29T20:16:03.085Z,100478.38
2023-01-29T20:18:31.404Z,100476.75
2023-01-29T20:20:59.972Z,100482.00
2023-01-29T20:23:37.765Z,100483.66
2023-01-29T20:26:09.873Z,100492.28
2023-01-29T20:28:38.356Z,100501.06
2023-01-29T20:31:08.282Z,100508.94
2023-01-29T20:33:39.355Z,100502.78
2023-01-29T20:36:10.129Z,100509.75
2023-01-29T20:38:38.615Z,100502.84
2023-01-29T20:41:10.386Z,100495.09
2023-01-29T20:43:38.705Z,100487.38
2023-01-29T20:46:07.151Z,100490.09
2023-01-29T20:48:35.556Z,100484.06
2023-01-29T20:51:06.747Z,100477.22
2023-01-29T20:53:35.110Z,100475.56
2023-01-29T20:56:04.621Z,100480.84
2023-01-29T20:58:35.034Z,100470.47
2023-01-29T21:01:07.814Z,100465.28
2023-01-29T21:03:36.123Z,100460.06
2023-01-29T21:06:04.830Z,100451.34
2023-01-29T21:08:33.612Z,100470.47
2023-01-29T21:11:01.950Z,100465.19
2023-01-29T21:13:30.173Z,100458.16
2023-01-29T21:15:59.728Z,100458.13
2023-01-29T21:18:27.983Z,100471.97
2023-01-29T21:20:56.608Z,100457.09
2023-01-29T21:23:24.943Z,100463.19
2023-01-29T21:25:53.203Z,100445.75
2023-01-29T21:28:21.459Z,100436.09
2023-01-29T21:30:49.760Z,100416.91
2023-01-29T21:33:19.316Z,100420.31
2023-01-29T21:35:47.571Z,100419.50
2023-01-29T21:38:15.901Z,100425.56
2023-01-29T21:40:44.075Z,100429.03
2023-01-29T21:43:12.171Z,100436.03
2023-01-29T21:45:41.494Z,100431.63
2023-01-29T21:48:10.575Z,100419.41
2023-01-29T21:50:40.282Z,100415.88
2023-01-29T21:53:08.624Z,100429.75
2023-01-29T21:55:36.846Z,100429.75
2023-01-29T21:58:05.060Z,100426.22
2023-01-29T22:00:33.327Z,100418.38
2023-01-29T22:03:01.705Z,100428.84
2023-01-29T22:05:30.304Z,100425.38
2023-01-29T22:07:59.948Z,100437.56
2023-01-29T22:10:28.656Z,100434.06
2023-01-29T22:12:57.901Z,100450.59
2023-01-29T22:15:26.053Z,100445.38
2023-01-29T22:17:54.515Z,100447.09
2023-01-29T22:20:29.795Z,100426.16
2023-01-29T22:23:00.804Z,100437.38
2023-01-29T22:25:29.256Z,100440.78
2023-01-29T22:27:57.356Z,100416.28
2023-01-29T22:30:25.908Z,100417.94
2023-01-29T22:32:54.123Z,100419.66
2023-01-29T22:35:22.552Z,100413.56
2023-01-29T22:37:50.785Z,100417.13
2023-01-29T22:40:20.780Z,100418.06
2023-01-29T22:42:49.202Z,100406.66
2023-01-29T22:45:17.460Z,100406.66
2023-01-29T22:47:45.689Z,100392.75
2023-01-29T22:50:14.847Z,100415.34
2023-01-29T22:52:54.043Z,100413.53
2023-01-29T22:55:23.763Z,100409.13
2023-01-29T22:57:53.528Z,100409.13
2023-01-29T23:00:22.300Z,100406.59
2023-01-29T23:02:50.790Z,100417.91
2023-01-29T23:05:19.279Z,100403.09
2023-01-29T23:07:47.464Z,100411.81
2023-01-29T23:10:16.676Z,100402.22
2023-01-29T23:12:46.361Z,100390.94
2023-01-29T23:15:14.583Z,100397.06
2023-01-29T23:17:42.733Z,100403.19
2023-01-29T23:20:12.129Z,100409.28
2023-01-29T23:22:40.324Z,100404.91
2023-01-29T23:25:09.108Z,100396.06
2023-01-29T23:27:36.469Z,100399.44
2023-01-29T23:30:07.005Z,100393.22
2023-01-29T23:32:35.553Z,100402.75
2023-01-29T23:35:03.853Z,100397.44
2023-01-29T23:37:32.106Z,100390.31
2023-01-29T23:40:00.269Z,100398.97
2023-01-29T23:42:28.522Z,100398.88
2023-01-29T23:44:56.702Z,100392.66
2023-01-29T23:47:26.209Z,100405.63
2023-01-29T23:49:54.397Z,100413.38
2023-01-29T23:52:22.594Z,100412.41
2023-01-29T23:54:50.808Z,100416.72
2023-01-29T23:57:19.066Z,100416.59
2023-01-29T23:59:47.266Z,100414.00
